createdAt,value
2018-02-08T00:00:45.267Z,189.00
2018-02-08T00:03:12.706Z,194.43
2018-02-08T00:05:40.131Z,181.95
2018-02-08T00:08:07.579Z,181.37
2018-02-08T00:10:35.015Z,186.65
2018-02-08T00:13:02.442Z,179.27
2018-02-08T00:15:29.894Z,181.68
2018-02-08T00:17:57.318Z,191.37
2018-02-08T00:20:24.742Z,219.23
2018-02-08T00:22:52.190Z,187.90
2018-02-08T00:25:19.627Z,181.20
2018-02-08T00:27:47.053Z,197.82
2018-02-08T00:30:14.494Z,192.27
2018-02-08T00:32:41.923Z,199.50
2018-02-08T00:35:09.375Z,191.35
2018-02-08T00:37:36.792Z,188.70
2018-02-08T00:40:04.222Z,189.50
2018-02-08T00:42:31.688Z,197.62
2018-02-08T00:44:59.123Z,201.95
2018-02-08T00:47:26.549Z,187.27
2018-02-08T00:49:53.994Z,187.60
2018-02-08T00:52:21.428Z,188.62
2018-02-08T00:54:48.846Z,197.05
2018-02-08T00:57:16.297Z,198.93
2018-02-08T00:59:43.726Z,185.95
2018-02-08T01:02:11.155Z,205.37
2018-02-08T01:04:38.599Z,199.27
2018-02-08T01:07:06.029Z,203.57
2018-02-08T01:09:33.467Z,187.23
2018-02-08T01:12:00.897Z,201.62
2018-02-08T01:14:28.325Z,205.50
2018-02-08T01:16:55.760Z,198.30
2018-02-08T01:19:23.214Z,185.15
2018-02-08T01:21:50.641Z,194.25
2018-02-08T01:24:18.083Z,195.80
2018-02-08T01:26:45.526Z,197.80
2018-02-08T01:29:12.978Z,190.02
2018-02-08T01:31:40.423Z,191.50
2018-02-08T01:34:07.850Z,194.30
2018-02-08T01:36:35.276Z,200.90
2018-02-08T01:39:02.714Z,201.37
2018-02-08T01:41:30.175Z,192.32
2018-02-08T01:43:57.607Z,211.90
2018-02-08T01:46:25.055Z,211.65
2018-02-08T01:48:52.522Z,179.30
2018-02-08T01:51:19.950Z,206.85
2018-02-08T01:53:47.385Z,196.05
2018-02-08T01:56:14.824Z,195.65
2018-02-08T01:58:42.248Z,210.57
2018-02-08T02:01:09.699Z,196.43
2018-02-08T02:03:37.127Z,192.10
2018-02-08T02:06:04.554Z,210.50
2018-02-08T02:08:31.999Z,209.75
2018-02-08T02:10:59.418Z,201.80
2018-02-08T02:13:26.851Z,213.70
2018-02-08T02:15:54.282Z,207.05
2018-02-08T02:18:21.714Z,202.40
2018-02-08T02:20:49.154Z,198.30
2018-02-08T02:23:16.574Z,211.15
2018-02-08T02:25:44.006Z,221.85
2018-02-08T02:28:11.455Z,217.37
2018-02-08T02:30:38.882Z,217.80
2018-02-08T02:33:06.317Z,228.48
2018-02-08T02:35:33.755Z,200.40
2018-02-08T02:38:01.178Z,227.55
2018-02-08T02:40:28.619Z,212.23
2018-02-08T02:42:56.046Z,215.07
2018-02-08T02:45:23.478Z,207.60
2018-02-08T02:47:50.922Z,214.10
2018-02-08T02:50:18.354Z,219.98
2018-02-08T02:52:45.787Z,214.43
2018-02-08T02:55:13.227Z,208.75
2018-02-08T02:57:40.939Z,217.45
2018-02-08T03:00:08.358Z,197.05
2018-02-08T03:02:35.794Z,198.43
2018-02-08T03:05:03.221Z,210.40
2018-02-08T03:07:30.666Z,225.82
2018-02-08T03:09:58.098Z,223.77
2018-02-08T03:12:25.534Z,215.05
2018-02-08T03:14:52.958Z,211.70
2018-02-08T03:17:20.404Z,206.48
2018-02-08T03:19:47.829Z,232.55
2018-02-08T03:22:15.263Z,214.93
2018-02-08T03:24:42.694Z,219.25
2018-02-08T03:27:10.137Z,218.12
2018-02-08T03:29:37.613Z,219.98
2018-02-08T03:32:05.021Z,216.05
2018-02-08T03:34:32.447Z,222.23
2018-02-08T03:36:59.870Z,242.02
2018-02-08T03:39:27.317Z,209.40
2018-02-08T03:41:54.742Z,224.90
2018-02-08T03:44:22.171Z,214.32
2018-02-08T03:46:49.610Z,219.07
2018-02-08T03:49:17.046Z,211.37
2018-02-08T03:51:44.474Z,218.55
2018-02-08T03:54:11.914Z,217.65
2018-02-08T03:56:39.343Z,238.32
2018-02-08T03:59:06.779Z,221.85
2018-02-08T04:01:34.226Z,229.18
2018-02-08T04:04:01.668Z,220.65
2018-02-08T04:06:29.100Z,219.95
2018-02-08T04:08:56.542Z,240.07
2018-02-08T04:11:23.969Z,230.65
2018-02-08T04:13:51.394Z,230.25
2018-02-08T04:16:18.837Z,225.75
2018-02-08T04:18:46.260Z,219.20
2018-02-08T04:21:13.696Z,228.77
2018-02-08T04:23:41.135Z,231.30
2018-02-08T04:26:08.562Z,224.60
2018-02-08T04:28:35.996Z,220.35
2018-02-08T04:31:03.434Z,234.02
2018-02-08T04:33:30.863Z,237.73
2018-02-08T04:35:58.295Z,217.50
2018-02-08T04:38:37.537Z,257.08
2018-02-08T04:54:35.064Z,256.27
2018-02-08T04:57:02.494Z,252.20
2018-02-08T04:59:29.923Z,229.63
2018-02-08T05:02:00.096Z,255.23
2018-02-08T05:04:27.530Z,251.30
2018-02-08T05:06:54.962Z,235.80
2018-02-08T05:09:22.444Z,243.57
2018-02-08T05:11:49.828Z,249.37
2018-02-08T05:14:17.250Z,254.20
2018-02-08T05:16:44.702Z,247.50
2018-02-08T05:19:12.126Z,253.35
2018-02-08T05:21:39.550Z,261.17
2018-02-08T05:24:06.998Z,241.65
2018-02-08T05:26:34.429Z,261.95
2018-02-08T05:29:01.862Z,253.52
2018-02-08T05:31:29.309Z,267.00
2018-02-08T05:33:56.749Z,258.70
2018-02-08T05:36:24.170Z,254.73
2018-02-08T05:38:51.610Z,264.42
2018-02-08T05:41:19.047Z,259.48
2018-02-08T05:43:46.475Z,250.90
2018-02-08T05:46:13.918Z,258.83
2018-02-08T05:48:41.351Z,249.32
2018-02-08T05:51:08.774Z,267.05
2018-02-08T05:53:36.219Z,268.60
2018-02-08T05:56:03.655Z,244.93
2018-02-08T05:58:31.078Z,251.52
2018-02-08T06:00:58.518Z,268.48
2018-02-08T06:03:25.956Z,259.98
2018-02-08T06:05:53.391Z,243.23
2018-02-08T06:08:20.856Z,261.25
2018-02-08T06:10:48.277Z,265.65
2018-02-08T06:13:15.716Z,249.88
2018-02-08T06:15:43.159Z,262.12
2018-02-08T06:18:10.598Z,276.65
2018-02-08T06:20:38.023Z,265.48
2018-02-08T06:23:05.471Z,265.50
2018-02-08T06:25:32.890Z,255.32
2018-02-08T06:28:00.306Z,260.75
2018-02-08T06:30:27.745Z,264.77
2018-02-08T06:32:55.190Z,253.48
2018-02-08T06:35:22.616Z,259.55
2018-02-08T06:37:50.042Z,259.52
2018-02-08T06:40:17.479Z,270.98
2018-02-08T06:42:44.898Z,268.15
2018-02-08T06:45:12.331Z,252.43
2018-02-08T06:47:39.830Z,254.45
2018-02-08T06:50:07.226Z,240.50
2018-02-08T06:52:34.643Z,272.52
2018-02-08T06:55:02.087Z,266.15
2018-02-08T06:57:29.523Z,257.55
2018-02-08T06:59:56.954Z,287.80
2018-02-08T07:02:24.390Z,262.92
2018-02-08T07:04:51.824Z,265.67
2018-02-08T07:07:19.255Z,259.48
2018-02-08T07:09:46.695Z,263.83
2018-02-08T07:12:14.127Z,273.75
2018-02-08T07:14:41.558Z,276.75
2018-02-08T07:17:09.016Z,283.67
2018-02-08T07:19:36.440Z,267.80
2018-02-08T07:22:03.874Z,270.50
2018-02-08T07:24:31.315Z,285.05
2018-02-08T07:26:58.757Z,295.60
2018-02-08T07:29:26.176Z,263.87
2018-02-08T07:31:53.622Z,296.92
2018-02-08T07:34:21.050Z,283.50
2018-02-08T07:36:48.478Z,266.90
2018-02-08T07:39:15.924Z,294.50
2018-02-08T07:41:43.345Z,271.70
2018-02-08T07:44:10.808Z,274.37
2018-02-08T07:46:38.249Z,285.98
2018-02-08T07:49:05.687Z,265.77
2018-02-08T07:51:33.118Z,271.73
2018-02-08T07:54:00.528Z,258.58
2018-02-08T07:56:27.991Z,277.73
2018-02-08T07:58:55.422Z,275.85
2018-02-08T08:01:22.862Z,276.33
2018-02-08T08:03:50.330Z,281.83
2018-02-08T08:06:17.731Z,280.50
2018-02-08T08:08:45.178Z,274.37
2018-02-08T08:11:12.622Z,273.85
2018-02-08T08:13:40.042Z,291.65
2018-02-08T08:16:07.472Z,290.67
2018-02-08T08:18:34.919Z,279.30
2018-02-08T08:21:02.346Z,252.87
2018-02-08T08:23:29.774Z,270.75
2018-02-08T08:25:57.222Z,314.52
2018-02-08T08:28:24.659Z,267.73
2018-02-08T08:30:52.082Z,281.50
2018-02-08T08:33:19.522Z,260.75
2018-02-08T08:35:46.950Z,279.45
2018-02-08T08:38:14.381Z,275.70
2018-02-08T08:40:41.826Z,273.60
2018-02-08T08:43:09.259Z,257.25
2018-02-08T08:45:36.722Z,285.35
2018-02-08T08:48:04.171Z,286.33
2018-02-08T08:50:31.601Z,271.45
2018-02-08T08:52:59.030Z,273.90
2018-02-08T08:55:26.474Z,255.70
2018-02-08T08:57:53.944Z,274.90
2018-02-08T09:00:21.357Z,270.25
2018-02-08T09:02:48.794Z,279.13
2018-02-08T09:05:16.227Z,265.25
2018-02-08T09:07:43.651Z,280.60
2018-02-08T09:10:11.095Z,291.60
2018-02-08T09:12:38.534Z,255.77
2018-02-08T09:15:05.954Z,263.92
2018-02-08T09:17:33.379Z,256.98
2018-02-08T09:20:00.818Z,273.75
2018-02-08T09:22:28.246Z,268.37
2018-02-08T09:24:55.679Z,262.95
2018-02-08T09:27:23.115Z,268.05
2018-02-08T09:29:50.539Z,268.10
2018-02-08T09:32:17.966Z,265.42
2018-02-08T09:34:45.406Z,267.00
2018-02-08T09:37:12.834Z,244.75
2018-02-08T09:39:40.264Z,258.25
2018-02-08T09:42:07.709Z,255.52
2018-02-08T09:44:35.145Z,261.27
2018-02-08T09:47:02.574Z,271.60
2018-02-08T09:49:30.015Z,255.32
2018-02-08T09:51:57.440Z,261.15
2018-02-08T09:54:24.862Z,253.37
2018-02-08T09:56:52.315Z,259.17
2018-02-08T09:59:19.746Z,262.50
2018-02-08T10:01:47.175Z,274.62
2018-02-08T10:04:14.624Z,272.10
2018-02-08T10:06:42.056Z,245.48
2018-02-08T10:09:09.488Z,263.75
2018-02-08T10:11:36.935Z,262.12
2018-02-08T10:14:04.376Z,265.48
2018-02-08T10:16:31.805Z,269.23
2018-02-08T10:18:59.276Z,268.23
2018-02-08T10:21:26.695Z,249.15
2018-02-08T10:23:54.198Z,249.62
2018-02-08T10:26:21.632Z,256.70
2018-02-08T10:28:49.064Z,259.62
2018-02-08T10:31:16.491Z,251.50
2018-02-08T10:33:43.930Z,260.45
2018-02-08T10:36:11.363Z,273.30
2018-02-08T10:38:38.800Z,254.40
2018-02-08T10:41:06.248Z,268.17
2018-02-08T10:43:33.682Z,245.48
2018-02-08T10:46:01.116Z,255.55
2018-02-08T10:48:28.564Z,271.65
2018-02-08T10:50:55.995Z,267.25
2018-02-08T10:53:23.430Z,253.50
2018-02-08T10:55:50.892Z,248.07
2018-02-08T10:58:18.324Z,253.85
2018-02-08T11:00:45.769Z,272.95
2018-02-08T11:03:13.226Z,318.67
2018-02-08T11:05:40.646Z,270.55
2018-02-08T11:08:08.074Z,262.38
2018-02-08T11:10:35.531Z,260.90
2018-02-08T11:13:02.947Z,270.05
2018-02-08T11:15:30.374Z,277.20
2018-02-08T11:17:57.814Z,270.35
2018-02-08T11:20:25.246Z,269.05
2018-02-08T11:22:52.683Z,261.83
2018-02-08T11:25:20.122Z,260.10
2018-02-08T11:27:47.562Z,257.95
2018-02-08T11:30:15.035Z,245.98
2018-02-08T11:32:42.565Z,270.98
2018-02-08T11:35:09.987Z,260.80
2018-02-08T11:37:37.425Z,259.90
2018-02-08T11:40:04.901Z,263.37
2018-02-08T11:42:32.421Z,278.02
2018-02-08T11:44:59.901Z,253.45
2018-02-08T11:47:27.415Z,261.83
2018-02-08T11:49:54.835Z,255.05
2018-02-08T11:52:22.270Z,261.37
2018-02-08T11:54:49.718Z,247.07
2018-02-08T11:57:17.154Z,247.10
2018-02-08T11:59:44.574Z,278.30
2018-02-08T12:02:12.014Z,257.52
2018-02-08T12:04:39.446Z,239.38
2018-02-08T12:07:06.882Z,271.17
2018-02-08T12:09:34.330Z,259.25
2018-02-08T12:12:01.763Z,260.50
2018-02-08T12:14:29.191Z,263.23
2018-02-08T12:16:56.650Z,261.92
2018-02-08T12:19:24.091Z,264.48
2018-02-08T12:21:51.514Z,251.37
2018-02-08T12:24:18.961Z,271.50
2018-02-08T12:26:46.389Z,248.32
2018-02-08T12:29:13.823Z,271.67
2018-02-08T12:31:41.257Z,269.90
2018-02-08T12:34:08.695Z,258.42
2018-02-08T12:36:36.127Z,262.23
2018-02-08T12:39:03.578Z,255.35
2018-02-08T12:41:31.005Z,261.98
2018-02-08T12:43:58.438Z,251.32
2018-02-08T12:46:25.914Z,256.42
2018-02-08T12:48:53.354Z,259.17
2018-02-08T12:51:20.791Z,246.55
2018-02-08T12:53:48.250Z,270.85
2018-02-08T12:56:15.679Z,249.10
2018-02-08T12:58:43.119Z,240.30
2018-02-08T13:01:10.567Z,252.57
2018-02-08T13:03:38.007Z,251.48
2018-02-08T13:06:05.442Z,247.63
2018-02-08T13:08:32.899Z,250.30
2018-02-08T13:11:00.344Z,254.60
2018-02-08T13:13:28.142Z,265.45
2018-02-08T13:15:55.581Z,264.00
2018-02-08T13:18:23.027Z,264.40
2018-02-08T13:20:50.475Z,280.58
2018-02-08T13:23:17.955Z,264.55
2018-02-08T13:25:45.413Z,263.12
2018-02-08T13:28:12.842Z,269.45
2018-02-08T13:30:40.302Z,258.15
2018-02-08T13:33:07.734Z,242.32
2018-02-08T13:35:35.174Z,264.85
2018-02-08T13:38:02.622Z,245.40
2018-02-08T13:40:36.092Z,261.40
2018-02-08T13:43:03.541Z,257.17
2018-02-08T13:45:32.046Z,256.48
2018-02-08T14:01:34.847Z,274.98
2018-02-08T14:04:02.294Z,259.70
2018-02-08T14:06:29.726Z,270.60
2018-02-08T14:08:57.174Z,274.25
2018-02-08T14:11:24.614Z,261.23
2018-02-08T14:13:52.042Z,256.58
2018-02-08T14:16:19.498Z,264.55
2018-02-08T14:18:46.936Z,265.98
2018-02-08T14:21:14.374Z,269.80
2018-02-08T14:23:41.829Z,268.85
2018-02-08T14:26:09.313Z,246.23
2018-02-08T14:28:36.734Z,255.25
2018-02-08T14:31:04.181Z,259.52
2018-02-08T14:33:31.621Z,265.70
2018-02-08T14:35:59.071Z,257.00
2018-02-08T14:38:26.523Z,260.05
2018-02-08T14:40:53.953Z,258.55
2018-02-08T14:43:21.395Z,258.13
2018-02-08T14:45:48.855Z,251.18
2018-02-08T14:48:16.282Z,253.23
2018-02-08T14:50:43.722Z,284.40
2018-02-08T14:53:11.171Z,276.25
2018-02-08T14:55:38.608Z,270.12
2018-02-08T14:58:06.042Z,265.10
2018-02-08T15:00:33.527Z,277.35
2018-02-08T15:03:00.963Z,269.90
2018-02-08T15:05:28.401Z,269.87
2018-02-08T15:07:55.848Z,260.45
2018-02-08T15:10:23.362Z,244.60
2018-02-08T15:12:50.806Z,262.65
2018-02-08T15:15:18.255Z,270.95
2018-02-08T15:17:45.694Z,259.17
2018-02-08T15:20:13.125Z,272.98
2018-02-08T15:22:40.573Z,256.33
2018-02-08T15:25:08.002Z,270.15
2018-02-08T15:27:35.439Z,265.87
2018-02-08T15:30:02.887Z,264.60
2018-02-08T15:32:30.373Z,269.80
2018-02-08T15:34:57.814Z,259.80
2018-02-08T15:37:25.266Z,295.85
2018-02-08T15:39:52.694Z,262.88
2018-02-08T15:42:20.127Z,278.95
2018-02-08T15:44:47.583Z,280.17
2018-02-08T15:47:15.014Z,264.38
2018-02-08T15:49:42.454Z,259.35
2018-02-08T15:52:09.902Z,260.80
2018-02-08T15:54:37.338Z,274.40
2018-02-08T15:57:04.762Z,257.87
2018-02-08T15:59:32.214Z,264.33
2018-02-08T16:01:59.643Z,259.83
2018-02-08T16:04:27.069Z,284.02
2018-02-08T16:06:54.524Z,281.15
2018-02-08T16:09:21.957Z,269.23
2018-02-08T16:11:49.404Z,277.35
2018-02-08T16:14:17.020Z,280.62
2018-02-08T16:16:44.860Z,279.45
2018-02-08T16:19:12.297Z,275.52
2018-02-08T16:21:39.746Z,279.90
2018-02-08T16:24:07.239Z,281.48
2018-02-08T16:26:34.670Z,274.27
2018-02-08T16:29:02.116Z,273.98
2018-02-08T16:31:29.566Z,270.83
2018-02-08T16:33:57.014Z,268.02
2018-02-08T16:36:24.450Z,279.17
2018-02-08T16:38:51.903Z,279.75
2018-02-08T16:41:19.339Z,283.20
2018-02-08T16:43:46.774Z,276.77
2018-02-08T16:46:14.240Z,299.30
2018-02-08T16:48:41.674Z,295.55
2018-02-08T16:51:09.122Z,290.30
2018-02-08T16:53:36.574Z,296.40
2018-02-08T16:56:04.011Z,295.05
2018-02-08T16:58:31.455Z,298.35
2018-02-08T17:00:58.950Z,290.77
2018-02-08T17:03:26.639Z,318.95
2018-02-08T17:05:54.130Z,304.50
2018-02-08T17:08:21.597Z,301.48
2018-02-08T17:10:49.050Z,296.58
2018-02-08T17:13:16.633Z,297.67
2018-02-08T17:15:44.615Z,297.17
2018-02-08T17:18:12.429Z,295.23
2018-02-08T17:20:39.976Z,327.15
2018-02-08T17:23:07.577Z,310.17
2018-02-08T17:25:35.294Z,283.90
2018-02-08T17:28:03.006Z,292.52
2018-02-08T17:30:30.784Z,296.85
2018-02-08T17:32:58.636Z,306.77
2018-02-08T17:35:26.568Z,293.75
2018-02-08T17:37:54.373Z,301.95
2018-02-08T17:40:22.579Z,279.52
2018-02-08T17:42:50.169Z,287.92
2018-02-08T17:45:18.083Z,268.00
2018-02-08T17:47:46.110Z,277.70
2018-02-08T17:50:13.802Z,289.42
2018-02-08T17:52:41.874Z,275.17
2018-02-08T17:55:09.716Z,267.40
2018-02-08T17:57:37.658Z,269.45
2018-02-08T18:00:05.794Z,264.75
2018-02-08T18:02:33.930Z,269.77
2018-02-08T18:05:02.123Z,262.08
2018-02-08T18:07:30.731Z,263.37
2018-02-08T18:09:59.026Z,270.52
2018-02-08T18:12:27.202Z,261.00
2018-02-08T18:14:55.610Z,268.08
2018-02-08T18:17:23.959Z,272.77
2018-02-08T18:19:52.360Z,281.98
2018-02-08T18:22:20.662Z,267.05
2018-02-08T18:24:49.030Z,255.02
2018-02-08T18:27:17.428Z,271.13
2018-02-08T18:29:45.879Z,265.98
2018-02-08T18:32:14.283Z,264.15
2018-02-08T18:34:42.661Z,281.05
2018-02-08T18:37:11.077Z,275.67
2018-02-08T18:39:39.378Z,268.10
2018-02-08T18:42:08.014Z,286.20
2018-02-08T18:44:36.657Z,281.80
2018-02-08T18:47:05.041Z,296.80
2018-02-08T18:49:33.486Z,274.08
2018-02-08T18:52:01.833Z,263.92
2018-02-08T18:54:30.196Z,276.95
2018-02-08T18:56:58.656Z,274.17
2018-02-08T18:59:27.052Z,283.25
2018-02-08T19:01:55.428Z,273.75
2018-02-08T19:04:23.886Z,285.10
2018-02-08T19:06:52.350Z,265.25
2018-02-08T19:09:22.383Z,273.90
2018-02-08T19:11:50.873Z,277.15
2018-02-08T19:14:19.265Z,274.95
2018-02-08T19:16:47.764Z,291.73
2018-02-08T19:19:16.237Z,290.62
2018-02-08T19:21:44.609Z,287.70
2018-02-08T19:24:12.999Z,269.60
2018-02-08T19:26:41.614Z,282.52
2018-02-08T19:29:09.998Z,272.48
2018-02-08T19:31:38.385Z,283.15
2018-02-08T19:34:06.881Z,272.33
2018-02-08T19:36:35.236Z,266.98
2018-02-08T19:39:03.734Z,271.90
2018-02-08T19:41:32.248Z,279.33
2018-02-08T19:44:00.615Z,278.33
2018-02-08T19:46:28.994Z,272.17
2018-02-08T19:48:57.472Z,276.12
2018-02-08T19:51:25.870Z,283.15
2018-02-08T19:53:54.411Z,275.58
2018-02-08T19:56:22.944Z,295.52
2018-02-08T19:58:51.439Z,275.10
2018-02-08T20:01:19.804Z,260.35
2018-02-08T20:03:48.277Z,278.20
2018-02-08T20:06:17.553Z,277.87
2018-02-08T20:08:46.040Z,276.20
2018-02-08T20:11:14.473Z,280.90
2018-02-08T20:13:42.875Z,301.48
2018-02-08T20:16:11.264Z,277.75
2018-02-08T20:18:39.742Z,275.90
2018-02-08T20:21:08.112Z,275.35
2018-02-08T20:23:36.480Z,291.10
2018-02-08T20:26:04.897Z,273.80
2018-02-08T20:28:33.293Z,271.40
2018-02-08T20:31:07.230Z,271.33
2018-02-08T20:33:35.637Z,283.65
2018-02-08T20:36:03.977Z,277.60
2018-02-08T20:38:32.444Z,270.48
2018-02-08T20:41:00.800Z,270.50
2018-02-08T20:43:32.871Z,286.77
2018-02-08T20:46:01.237Z,263.15
2018-02-08T20:48:29.963Z,278.60
2018-02-08T20:50:58.465Z,267.55
2018-02-08T20:53:26.945Z,276.30
2018-02-08T20:55:56.508Z,261.27
2018-02-08T20:58:25.556Z,279.15
2018-02-08T21:00:54.054Z,266.67
2018-02-08T21:03:22.449Z,285.50
2018-02-08T21:05:50.917Z,271.60
2018-02-08T21:08:19.241Z,259.48
2018-02-08T21:10:48.394Z,272.52
2018-02-08T21:13:17.019Z,257.75
2018-02-08T21:15:45.411Z,273.85
2018-02-08T21:18:13.785Z,276.25
2018-02-08T21:20:42.321Z,255.27
2018-02-08T21:23:10.696Z,256.35
2018-02-08T21:25:39.022Z,262.58
2018-02-08T21:28:07.488Z,256.30
2018-02-08T21:30:35.839Z,267.33
2018-02-08T21:33:04.186Z,271.67
2018-02-08T21:35:32.629Z,248.25
2018-02-08T21:38:00.970Z,273.15
2018-02-08T21:40:29.360Z,265.92
2018-02-08T21:42:57.834Z,275.95
2018-02-08T21:45:26.174Z,266.95
2018-02-08T21:47:54.483Z,275.10
2018-02-08T21:50:22.833Z,275.90
2018-02-08T21:52:51.103Z,272.33
2018-02-08T21:55:19.560Z,256.10
2018-02-08T21:57:47.988Z,267.27
2018-02-08T22:00:16.245Z,274.55
2018-02-08T22:02:44.229Z,258.75
2018-02-08T22:05:12.221Z,264.38
2018-02-08T22:07:40.172Z,254.55
2018-02-08T22:10:07.884Z,270.88
2018-02-08T22:12:35.504Z,261.08
2018-02-08T22:15:02.991Z,260.38
2018-02-08T22:17:30.452Z,221.68
2018-02-08T22:19:57.925Z,238.70
2018-02-08T22:22:25.427Z,212.35
2018-02-08T22:24:52.890Z,225.38
2018-02-08T22:27:20.355Z,212.52
2018-02-08T22:29:47.785Z,217.30
2018-02-08T22:32:15.229Z,241.30
2018-02-08T22:34:42.667Z,234.23
2018-02-08T22:37:10.111Z,234.70
2018-02-08T22:39:37.538Z,221.98
2018-02-08T22:42:04.975Z,228.52
2018-02-08T22:44:32.451Z,227.48
2018-02-08T22:46:59.887Z,226.75
2018-02-08T22:49:27.310Z,241.43
2018-02-08T22:51:54.745Z,227.10
2018-02-08T22:54:22.182Z,242.75
2018-02-08T22:56:49.637Z,246.68
2018-02-08T22:59:17.082Z,239.95
2018-02-08T23:01:44.516Z,240.73
2018-02-08T23:04:11.942Z,251.50
2018-02-08T23:06:39.384Z,262.77
2018-02-08T23:09:06.814Z,258.70
2018-02-08T23:11:34.247Z,269.67
2018-02-08T23:14:01.694Z,265.05
2018-02-08T23:16:29.138Z,277.95
2018-02-08T23:18:56.574Z,262.17
2018-02-08T23:21:24.030Z,261.00
2018-02-08T23:23:51.494Z,286.00
2018-02-08T23:26:18.932Z,283.90
2018-02-08T23:28:46.350Z,287.35
2018-02-08T23:31:13.805Z,293.67
2018-02-08T23:33:41.240Z,282.90
